createdAt,value
2023-10-22T00:01:06.842Z,1.40
2023-10-22T00:03:08.360Z,1.30
2023-10-22T00:05:10.200Z,1.30
2023-10-22T00:07:13.690Z,1.20
2023-10-22T00:09:15.133Z,1.27
2023-10-22T00:11:16.598Z,1.05
2023-10-22T00:13:18.061Z,1.23
2023-10-22T00:15:19.589Z,1.20
2023-10-22T00:17:21.088Z,1.08
2023-10-22T00:19:22.599Z,1.10
2023-10-22T00:21:24.056Z,1.10
2023-10-22T00:23:25.607Z,1.10
2023-10-22T00:25:27.081Z,1.42
2023-10-22T00:27:28.542Z,1.17
2023-10-22T00:29:30.196Z,1.20
2023-10-22T00:31:31.988Z,1.00
2023-10-22T00:33:33.578Z,1.00
2023-10-22T00:35:35.169Z,1.30
2023-10-22T00:37:37.080Z,1.50
2023-10-22T00:39:38.531Z,1.10
2023-10-22T00:41:40.017Z,1.20
2023-10-22T00:43:41.672Z,1.00
2023-10-22T00:45:45.692Z,1.40
2023-10-22T00:47:47.501Z,1.20
2023-10-22T00:49:49.369Z,1.13
2023-10-22T00:51:51.290Z,1.38
2023-10-22T00:53:53.035Z,1.10
2023-10-22T00:55:54.906Z,1.30
2023-10-22T00:57:58.129Z,1.10
2023-10-22T00:59:59.618Z,1.30
2023-10-22T01:02:01.192Z,1.00
2023-10-22T01:04:03.231Z,1.17
2023-10-22T01:06:05.539Z,1.40
2023-10-22T01:08:07.243Z,1.13
2023-10-22T01:10:10.231Z,1.25
2023-10-22T01:12:11.785Z,1.52
2023-10-22T01:14:13.301Z,1.23
2023-10-22T01:16:14.789Z,1.20
2023-10-22T01:18:16.383Z,1.15
2023-10-22T01:20:18.172Z,1.42
2023-10-22T01:22:20.382Z,1.10
2023-10-22T01:24:21.857Z,1.55
2023-10-22T01:26:23.309Z,1.00
2023-10-22T01:28:24.747Z,1.63
2023-10-22T01:30:26.411Z,1.30
2023-10-22T01:32:31.638Z,1.23
2023-10-22T01:34:33.160Z,1.10
2023-10-22T01:36:35.017Z,1.50
2023-10-22T01:38:36.523Z,1.23
2023-10-22T01:40:38.062Z,1.10
2023-10-22T01:42:39.515Z,1.55
2023-10-22T01:44:41.019Z,1.42
2023-10-22T01:46:42.567Z,1.35
2023-10-22T01:48:44.088Z,1.42
2023-10-22T01:50:45.641Z,1.10
2023-10-22T01:52:47.214Z,1.70
2023-10-22T01:54:48.825Z,1.40
2023-10-22T01:56:50.548Z,1.27
2023-10-22T01:58:52.014Z,1.17
2023-10-22T02:01:04.326Z,1.15
2023-10-22T02:03:06.153Z,1.25
2023-10-22T02:05:08.233Z,1.20
2023-10-22T02:07:10.268Z,1.20
2023-10-22T02:09:12.180Z,1.35
2023-10-22T02:11:13.766Z,1.30
2023-10-22T02:13:15.501Z,1.38
2023-10-22T02:15:17.217Z,1.13
2023-10-22T02:17:18.699Z,1.05
2023-10-22T02:19:20.158Z,1.40
2023-10-22T02:21:26.974Z,1.63
2023-10-22T02:23:28.825Z,1.42
2023-10-22T02:25:30.280Z,1.30
2023-10-22T02:27:32.397Z,1.40
2023-10-22T02:29:34.515Z,1.58
2023-10-22T02:31:36.078Z,1.30
2023-10-22T02:33:39.220Z,1.67
2023-10-22T02:35:42.003Z,1.42
2023-10-22T02:37:43.490Z,1.70
2023-10-22T02:39:44.992Z,1.77
2023-10-22T02:41:46.468Z,1.60
2023-10-22T02:43:51.497Z,1.70
2023-10-22T02:45:54.273Z,1.42
2023-10-22T02:47:56.735Z,1.70
2023-10-22T02:49:58.317Z,1.35
2023-10-22T02:51:59.879Z,1.50
2023-10-22T02:54:01.360Z,1.15
2023-10-22T02:56:03.699Z,1.50
2023-10-22T02:58:05.156Z,1.58
2023-10-22T03:00:17.988Z,1.90
2023-10-22T03:02:30.861Z,1.30
2023-10-22T03:04:32.470Z,1.60
2023-10-22T03:06:34.004Z,1.40
2023-10-22T03:08:36.784Z,1.50
2023-10-22T03:10:38.313Z,1.23
2023-10-22T03:12:39.817Z,1.40
2023-10-22T03:14:41.269Z,1.60
2023-10-22T03:16:44.136Z,1.42
2023-10-22T03:18:47.844Z,1.38
2023-10-22T03:20:51.306Z,1.70
2023-10-22T03:22:54.828Z,1.45
2023-10-22T03:24:56.628Z,1.40
2023-10-22T03:26:58.344Z,1.40
2023-10-22T03:29:00.631Z,1.50
2023-10-22T03:31:04.510Z,1.35
2023-10-22T03:33:06.516Z,1.50
2023-10-22T03:35:12.906Z,1.45
2023-10-22T03:37:14.343Z,1.60
2023-10-22T03:39:15.830Z,1.70
2023-10-22T03:41:17.310Z,1.70
2023-10-22T03:43:18.750Z,1.40
2023-10-22T03:45:20.264Z,1.60
2023-10-22T03:47:21.849Z,1.13
2023-10-22T03:49:23.483Z,1.50
2023-10-22T03:51:25.424Z,1.60
2023-10-22T03:53:27.186Z,1.58
2023-10-22T03:55:28.694Z,1.58
2023-10-22T03:57:30.183Z,1.80
2023-10-22T03:59:31.659Z,1.65
2023-10-22T04:01:33.166Z,1.70
2023-10-22T04:03:34.927Z,1.77
2023-10-22T04:05:36.582Z,1.70
2023-10-22T04:07:38.054Z,1.70
2023-10-22T04:09:39.692Z,1.83
2023-10-22T04:11:42.030Z,1.80
2023-10-22T04:13:43.491Z,1.67
2023-10-22T04:15:46.979Z,1.48
2023-10-22T04:17:48.852Z,1.60
2023-10-22T04:19:50.390Z,1.83
2023-10-22T04:21:51.868Z,1.40
2023-10-22T04:23:53.384Z,1.60
2023-10-22T04:25:55.574Z,1.70
2023-10-22T04:27:57.063Z,1.65
2023-10-22T04:29:58.720Z,1.70
2023-10-22T04:32:00.196Z,1.52
2023-10-22T04:34:01.672Z,1.80
2023-10-22T04:36:04.295Z,1.70
2023-10-22T04:38:05.964Z,2.00
2023-10-22T04:40:08.109Z,1.60
2023-10-22T04:42:09.619Z,1.83
2023-10-22T04:44:11.087Z,1.52
2023-10-22T04:46:12.582Z,1.55
2023-10-22T04:48:14.187Z,1.70
2023-10-22T04:50:15.731Z,2.20
2023-10-22T04:52:32.926Z,1.85
2023-10-22T04:54:34.578Z,2.00
2023-10-22T04:56:36.068Z,1.80
2023-10-22T04:58:37.525Z,1.60
2023-10-22T05:00:39.024Z,2.08
2023-10-22T05:02:40.698Z,1.80
2023-10-22T05:04:42.320Z,1.60
2023-10-22T05:06:43.973Z,1.60
2023-10-22T05:08:45.542Z,2.10
2023-10-22T05:10:47.005Z,2.10
2023-10-22T05:12:48.460Z,1.98
2023-10-22T05:14:49.978Z,1.92
2023-10-22T05:16:53.484Z,1.80
2023-10-22T05:18:54.919Z,1.92
2023-10-22T05:21:06.106Z,1.90
2023-10-22T05:23:08.864Z,2.17
2023-10-22T05:25:11.330Z,2.10
2023-10-22T05:27:14.097Z,1.75
2023-10-22T05:29:15.651Z,1.63
2023-10-22T05:31:21.117Z,2.00
2023-10-22T05:33:22.789Z,2.20
2023-10-22T05:35:24.393Z,1.90
2023-10-22T05:37:25.848Z,1.77
2023-10-22T05:39:27.390Z,2.10
2023-10-22T05:41:29.376Z,2.13
2023-10-22T05:43:30.807Z,2.10
2023-10-22T05:45:32.296Z,1.80
2023-10-22T05:47:34.095Z,2.08
2023-10-22T05:49:35.540Z,2.03
2023-10-22T05:51:37.246Z,2.30
2023-10-22T05:53:38.714Z,1.85
2023-10-22T05:55:40.228Z,2.28
2023-10-22T05:57:41.679Z,2.60
2023-10-22T05:59:43.157Z,2.88
2023-10-22T06:01:44.873Z,3.30
2023-10-22T06:03:48.196Z,3.30
2023-10-22T06:05:50.447Z,3.60
2023-10-22T06:07:53.835Z,3.22
2023-10-22T06:09:55.635Z,3.40
2023-10-22T06:11:57.149Z,3.70
2023-10-22T06:13:58.651Z,4.60
2023-10-22T06:16:00.455Z,4.60
2023-10-22T06:18:02.535Z,4.78
2023-10-22T06:20:06.169Z,5.30
2023-10-22T06:22:07.640Z,5.53
2023-10-22T06:24:09.743Z,5.32
2023-10-22T06:26:17.035Z,5.50
2023-10-22T06:28:18.532Z,5.80
2023-10-22T06:30:23.313Z,5.43
2023-10-22T06:32:24.808Z,4.95
2023-10-22T06:34:26.432Z,5.70
2023-10-22T06:36:27.987Z,5.50
2023-10-22T06:38:29.433Z,5.10
2023-10-22T06:40:30.926Z,5.05
2023-10-22T06:42:32.470Z,5.00
2023-10-22T06:44:33.984Z,4.70
2023-10-22T06:46:35.431Z,4.68
2023-10-22T06:48:37.443Z,4.30
2023-10-22T06:50:38.912Z,3.67
2023-10-22T06:52:44.790Z,3.50
2023-10-22T06:54:47.219Z,3.33
2023-10-22T06:56:48.688Z,3.28
2023-10-22T06:58:50.162Z,2.88
2023-10-22T07:00:53.299Z,2.72
2023-10-22T07:02:54.840Z,2.78
2023-10-22T07:04:57.792Z,2.67
2023-10-22T07:06:59.272Z,2.50
2023-10-22T07:09:00.791Z,2.50
2023-10-22T07:11:02.387Z,2.60
2023-10-22T07:13:03.855Z,2.20
2023-10-22T07:15:05.991Z,2.20
2023-10-22T07:17:07.709Z,2.38
2023-10-22T07:19:09.204Z,2.20
2023-10-22T07:21:10.714Z,2.20
2023-10-22T07:23:13.332Z,2.17
2023-10-22T07:25:17.947Z,2.10
2023-10-22T07:27:19.440Z,2.00
2023-10-22T07:29:21.972Z,2.30
2023-10-22T07:31:23.976Z,2.05
2023-10-22T07:33:27.984Z,2.10
2023-10-22T07:35:29.681Z,2.08
2023-10-22T07:37:31.106Z,2.30
2023-10-22T07:39:33.314Z,2.47
2023-10-22T07:41:35.108Z,2.00
2023-10-22T07:43:36.566Z,1.90
2023-10-22T07:45:41.073Z,2.15
2023-10-22T07:47:42.639Z,2.47
2023-10-22T07:49:44.383Z,2.25
2023-10-22T07:51:46.476Z,2.35
2023-10-22T07:53:48.999Z,2.03
2023-10-22T07:55:50.587Z,2.50
2023-10-22T07:57:52.173Z,2.10
2023-10-22T07:59:57.065Z,2.10
2023-10-22T08:01:58.567Z,2.33
2023-10-22T08:04:00.182Z,2.67
2023-10-22T08:06:03.894Z,3.47
2023-10-22T08:08:05.382Z,3.05
2023-10-22T08:10:07.283Z,2.95
2023-10-22T08:12:08.965Z,3.13
2023-10-22T08:14:10.850Z,2.90
2023-10-22T08:16:13.347Z,2.78
2023-10-22T08:18:14.978Z,2.50
2023-10-22T08:20:16.483Z,2.30
2023-10-22T08:22:18.024Z,1.90
2023-10-22T08:24:19.598Z,2.20
2023-10-22T08:26:22.574Z,1.83
2023-10-22T08:28:24.180Z,1.80
2023-10-22T08:30:26.146Z,2.08
2023-10-22T08:32:27.882Z,1.70
2023-10-22T08:34:29.395Z,1.73
2023-10-22T08:36:30.943Z,1.90
2023-10-22T08:38:32.864Z,1.67
2023-10-22T08:40:39.105Z,1.60
2023-10-22T08:42:40.668Z,1.65
2023-10-22T08:44:47.048Z,1.58
2023-10-22T08:46:48.611Z,1.77
2023-10-22T08:48:51.487Z,1.35
2023-10-22T08:50:53.757Z,1.63
2023-10-22T08:52:55.285Z,1.30
2023-10-22T08:54:56.794Z,1.38
2023-10-22T08:56:58.454Z,1.60
2023-10-22T08:59:03.364Z,1.20
2023-10-22T09:01:05.097Z,1.40
2023-10-22T09:03:07.073Z,1.25
2023-10-22T09:05:08.861Z,1.30
2023-10-22T09:07:10.450Z,1.40
2023-10-22T09:09:29.040Z,1.13
2023-10-22T09:11:30.662Z,1.20
2023-10-22T09:13:33.191Z,1.05
2023-10-22T09:15:40.298Z,1.20
2023-10-22T09:17:45.742Z,1.17
2023-10-22T09:19:49.556Z,1.00
2023-10-22T09:21:51.181Z,0.90
2023-10-22T09:24:04.114Z,1.10
2023-10-22T09:26:05.713Z,1.00
2023-10-22T09:28:14.518Z,0.73
2023-10-22T09:30:17.878Z,1.10
2023-10-22T09:32:19.911Z,0.95
2023-10-22T09:34:28.414Z,0.90
2023-10-22T09:36:30.053Z,0.80
2023-10-22T09:38:49.194Z,1.00
2023-10-22T09:40:50.777Z,1.13
2023-10-22T09:42:52.344Z,1.10
2023-10-22T09:44:53.939Z,1.23
2023-10-22T09:46:56.144Z,1.05
2023-10-22T09:48:59.969Z,1.20
2023-10-22T09:51:05.425Z,1.00
2023-10-22T09:53:09.884Z,1.10
2023-10-22T09:55:15.917Z,1.20
2023-10-22T09:57:18.702Z,1.20
2023-10-22T09:59:23.581Z,1.23
2023-10-22T10:01:28.525Z,1.05
2023-10-22T10:03:31.254Z,1.20
2023-10-22T10:05:34.387Z,1.25
2023-10-22T10:07:36.630Z,1.17
2023-10-22T10:09:39.104Z,1.23
2023-10-22T10:11:41.025Z,0.93
2023-10-22T10:13:42.976Z,1.27
2023-10-22T10:15:44.808Z,1.30
2023-10-22T10:17:55.839Z,1.10
2023-10-22T10:20:24.812Z,1.13
2023-10-22T10:22:45.400Z,1.20
2023-10-22T10:24:48.723Z,1.08
2023-10-22T10:26:53.314Z,1.20
2023-10-22T10:28:55.296Z,1.30
2023-10-22T10:31:29.473Z,1.15
2023-10-22T10:34:02.945Z,1.88
2023-10-22T10:36:04.983Z,1.20
2023-10-22T10:38:15.573Z,1.23
2023-10-22T10:40:57.539Z,1.50
2023-10-22T10:42:59.320Z,1.45
2023-10-22T10:45:02.262Z,1.20
2023-10-22T10:47:21.985Z,1.52
2023-10-22T10:50:05.271Z,1.30
2023-10-22T10:52:06.788Z,1.40
2023-10-22T10:54:08.523Z,1.25
2023-10-22T10:56:10.574Z,1.35
2023-10-22T10:58:13.923Z,1.38
2023-10-22T11:00:25.429Z,1.50
2023-10-22T11:02:27.202Z,1.10
2023-10-22T11:04:30.532Z,1.40
2023-10-22T11:06:32.356Z,1.00
2023-10-22T11:08:34.291Z,1.17
2023-10-22T11:10:35.858Z,1.40
2023-10-22T11:12:39.196Z,1.20
2023-10-22T11:14:40.728Z,1.10
2023-10-22T11:16:52.888Z,1.23
2023-10-22T11:18:55.237Z,1.20
2023-10-22T11:20:58.046Z,1.52
2023-10-22T11:23:00.247Z,1.52
2023-10-22T11:25:03.682Z,1.45
2023-10-22T11:27:06.766Z,1.55
2023-10-22T11:29:09.378Z,1.20
2023-10-22T11:31:24.935Z,1.35
2023-10-22T11:33:33.254Z,1.05
2023-10-22T11:35:36.312Z,1.45
2023-10-22T11:37:44.303Z,1.40
2023-10-22T11:39:45.966Z,1.23
2023-10-22T11:41:52.794Z,0.98
2023-10-22T11:43:54.259Z,1.10
2023-10-22T11:45:57.215Z,1.63
2023-10-22T11:48:15.110Z,1.05
2023-10-22T11:50:16.706Z,1.00
2023-10-22T11:52:38.124Z,1.13
2023-10-22T11:54:44.313Z,1.20
2023-10-22T11:56:45.756Z,1.10
2023-10-22T11:58:53.673Z,1.20
2023-10-22T12:00:55.310Z,0.77
2023-10-22T12:02:57.303Z,0.82
2023-10-22T12:05:00.717Z,1.20
2023-10-22T12:07:04.551Z,1.48
2023-10-22T12:09:06.410Z,1.20
2023-10-22T12:11:07.968Z,1.10
2023-10-22T12:13:12.279Z,0.95
2023-10-22T12:15:15.081Z,1.17
2023-10-22T12:17:19.365Z,1.20
2023-10-22T12:19:22.284Z,1.30
2023-10-22T12:21:25.493Z,1.20
2023-10-22T12:23:32.313Z,1.10
2023-10-22T12:25:43.723Z,1.17
2023-10-22T12:27:45.403Z,1.13
2023-10-22T12:29:47.892Z,1.40
2023-10-22T12:31:49.369Z,1.13
2023-10-22T12:33:50.938Z,1.13
2023-10-22T12:35:52.494Z,1.10
2023-10-22T12:37:55.994Z,1.40
2023-10-22T12:39:57.640Z,1.30
2023-10-22T12:41:59.129Z,1.58
2023-10-22T12:44:00.609Z,0.95
2023-10-22T12:46:04.519Z,1.20
2023-10-22T12:48:06.134Z,1.17
2023-10-22T12:50:08.097Z,1.25
2023-10-22T12:52:11.476Z,1.30
2023-10-22T12:54:13.186Z,1.30
2023-10-22T12:56:14.652Z,1.20
2023-10-22T12:58:16.142Z,1.20
2023-10-22T13:00:17.819Z,1.10
2023-10-22T13:02:19.521Z,1.13
2023-10-22T13:04:21.647Z,1.35
2023-10-22T13:06:23.377Z,1.30
2023-10-22T13:08:25.265Z,1.10
2023-10-22T13:10:26.863Z,1.27
2023-10-22T13:12:28.401Z,1.10
2023-10-22T13:14:29.907Z,1.20
2023-10-22T13:16:31.460Z,1.23
2023-10-22T13:18:32.955Z,1.20
2023-10-22T13:20:34.487Z,1.05
2023-10-22T13:22:35.932Z,1.20
2023-10-22T13:24:38.497Z,1.05
2023-10-22T13:26:40.984Z,1.15
2023-10-22T13:28:42.565Z,1.00
2023-10-22T13:30:44.963Z,1.17
2023-10-22T13:32:46.442Z,1.15
2023-10-22T13:34:48.204Z,0.98
2023-10-22T13:36:49.680Z,1.13
2023-10-22T13:38:51.257Z,1.08
2023-10-22T13:40:52.687Z,1.40
2023-10-22T13:42:54.186Z,1.08
2023-10-22T13:44:55.670Z,1.10
2023-10-22T13:46:57.206Z,1.30
2023-10-22T13:48:58.685Z,1.25
2023-10-22T13:51:05.400Z,0.93
2023-10-22T13:53:06.938Z,1.23
2023-10-22T13:55:09.000Z,1.25
2023-10-22T13:57:10.588Z,1.00
2023-10-22T13:59:14.414Z,1.20
2023-10-22T14:01:16.296Z,1.17
2023-10-22T14:03:18.032Z,1.27
2023-10-22T14:05:19.587Z,1.30
2023-10-22T14:07:21.054Z,1.45
2023-10-22T14:09:22.719Z,1.23
2023-10-22T14:11:24.205Z,1.50
2023-10-22T14:13:25.697Z,1.27
2023-10-22T14:15:29.454Z,2.33
2023-10-22T14:17:31.283Z,2.78
2023-10-22T14:19:36.529Z,2.60
2023-10-22T14:21:38.108Z,2.78
2023-10-22T14:23:39.619Z,2.05
2023-10-22T14:25:41.088Z,3.33
2023-10-22T14:27:42.719Z,3.25
2023-10-22T14:29:44.230Z,3.42
2023-10-22T14:31:45.732Z,3.03
2023-10-22T14:33:47.210Z,2.60
2023-10-22T14:35:48.848Z,3.10
2023-10-22T14:37:50.338Z,4.18
2023-10-22T14:39:51.785Z,4.22
2023-10-22T14:41:53.243Z,4.07
2023-10-22T14:43:54.923Z,3.85
2023-10-22T14:46:05.306Z,3.33
2023-10-22T14:48:06.845Z,3.13
2023-10-22T14:50:08.673Z,3.15
2023-10-22T14:52:10.139Z,2.17
2023-10-22T14:54:11.688Z,2.10
2023-10-22T14:56:13.658Z,2.08
2023-10-22T14:58:15.733Z,2.00
2023-10-22T15:00:17.776Z,2.30
2023-10-22T15:02:19.304Z,2.13
2023-10-22T15:04:23.254Z,2.33
2023-10-22T15:06:24.945Z,2.58
2023-10-22T15:08:28.904Z,2.60
2023-10-22T15:10:30.368Z,2.60
2023-10-22T15:12:35.098Z,2.30
2023-10-22T15:14:38.187Z,1.70
2023-10-22T15:16:43.991Z,1.73
2023-10-22T15:18:45.604Z,1.95
2023-10-22T15:20:51.582Z,2.30
2023-10-22T15:22:53.700Z,1.90
2023-10-22T15:24:55.161Z,1.85
2023-10-22T15:26:58.510Z,1.77
2023-10-22T15:29:00.081Z,1.38
2023-10-22T15:31:02.064Z,1.40
2023-10-22T15:33:04.181Z,1.52
2023-10-22T15:35:06.054Z,1.42
2023-10-22T15:37:07.520Z,1.50
2023-10-22T15:39:09.073Z,1.23
2023-10-22T15:41:10.599Z,1.20
2023-10-22T15:43:12.966Z,1.40
2023-10-22T15:45:14.642Z,1.00
2023-10-22T15:47:16.105Z,1.25
2023-10-22T15:49:17.580Z,0.90
2023-10-22T15:51:21.142Z,1.10
2023-10-22T15:53:22.867Z,1.20
2023-10-22T15:55:24.559Z,1.15
2023-10-22T15:57:26.340Z,1.35
2023-10-22T15:59:27.835Z,1.20
2023-10-22T16:01:29.326Z,0.88
2023-10-22T16:03:30.870Z,0.95
2023-10-22T16:05:36.993Z,0.93
2023-10-22T16:07:39.610Z,1.38
2023-10-22T16:09:41.358Z,1.00
2023-10-22T16:11:46.674Z,1.48
2023-10-22T16:13:48.128Z,1.38
2023-10-22T16:15:49.675Z,1.48
2023-10-22T16:17:51.389Z,1.20
2023-10-22T16:19:57.875Z,1.65
2023-10-22T16:21:59.361Z,1.67
2023-10-22T16:24:00.916Z,1.80
2023-10-22T16:26:02.626Z,2.20
2023-10-22T16:28:04.423Z,2.90
2023-10-22T16:30:06.627Z,4.05
2023-10-22T16:32:08.326Z,5.10
2023-10-22T16:34:10.042Z,5.82
2023-10-22T16:36:15.203Z,5.25
2023-10-22T16:38:17.361Z,5.57
2023-10-22T16:40:18.843Z,5.10
2023-10-22T16:42:20.507Z,4.60
2023-10-22T16:44:23.222Z,4.00
2023-10-22T16:46:24.794Z,4.07
2023-10-22T16:48:26.348Z,4.80
2023-10-22T16:50:28.914Z,5.10
2023-10-22T16:52:32.080Z,4.93
2023-10-22T16:54:33.640Z,5.82
2023-10-22T16:56:35.596Z,5.32
2023-10-22T16:58:37.317Z,4.20
2023-10-22T17:00:38.933Z,4.55
2023-10-22T17:02:43.009Z,5.88
2023-10-22T17:04:44.652Z,6.78
2023-10-22T17:06:46.310Z,7.60
2023-10-22T17:08:50.479Z,8.90
2023-10-22T17:10:58.432Z,12.60
2023-10-22T17:13:00.665Z,12.48
2023-10-22T17:15:02.651Z,12.90
2023-10-22T17:17:04.430Z,13.50
2023-10-22T17:19:05.998Z,14.80
2023-10-22T17:21:07.611Z,16.58
2023-10-22T17:23:09.588Z,17.90
2023-10-22T17:25:11.070Z,19.33
2023-10-22T17:27:12.617Z,19.63
2023-10-22T17:29:14.133Z,17.45
2023-10-22T17:31:16.633Z,16.65
2023-10-22T17:33:18.412Z,18.35
2023-10-22T17:35:19.887Z,19.30
2023-10-22T17:37:21.360Z,20.27
2023-10-22T17:39:22.839Z,17.30
2023-10-22T17:41:24.336Z,16.55
2023-10-22T17:43:27.173Z,15.88
2023-10-22T17:45:30.888Z,14.15
2023-10-22T17:47:32.606Z,15.80
2023-10-22T17:49:34.189Z,13.95
2023-10-22T17:51:36.417Z,12.07
2023-10-22T17:53:37.901Z,11.52
2023-10-22T17:55:39.450Z,12.13
2023-10-22T17:57:40.954Z,11.80
2023-10-22T17:59:42.443Z,11.25
2023-10-22T18:01:43.954Z,10.43
2023-10-22T18:03:49.863Z,8.73
2023-10-22T18:05:52.097Z,9.88
2023-10-22T18:07:53.580Z,8.75
2023-10-22T18:09:55.103Z,6.32
2023-10-22T18:11:56.991Z,6.32
2023-10-22T18:14:00.579Z,7.00
2023-10-22T18:16:02.103Z,6.60
2023-10-22T18:18:03.855Z,6.38
2023-10-22T18:20:18.310Z,4.90
2023-10-22T18:22:33.097Z,4.15
2023-10-22T18:24:36.271Z,4.78
2023-10-22T18:26:37.993Z,3.75
2023-10-22T18:28:39.913Z,5.00
2023-10-22T18:30:44.916Z,5.53
2023-10-22T18:32:46.714Z,7.05
2023-10-22T18:34:48.432Z,7.25
2023-10-22T18:36:49.911Z,7.53
2023-10-22T18:38:53.066Z,7.03
2023-10-22T18:40:54.535Z,7.20
2023-10-22T18:42:56.314Z,8.63
2023-10-22T18:44:57.944Z,8.40
2023-10-22T18:46:59.393Z,9.40
2023-10-22T18:49:04.585Z,7.70
2023-10-22T18:51:06.305Z,7.55
2023-10-22T18:53:08.081Z,7.28
2023-10-22T18:55:10.968Z,7.20
2023-10-22T18:57:12.433Z,6.90
2023-10-22T18:59:14.146Z,7.10
2023-10-22T19:01:25.628Z,5.63
2023-10-22T19:03:27.964Z,5.38
2023-10-22T19:05:29.507Z,5.25
2023-10-22T19:07:31.285Z,4.60
2023-10-22T19:09:33.537Z,5.40
2023-10-22T19:11:35.069Z,4.78
2023-10-22T19:13:36.529Z,4.88
2023-10-22T19:15:39.964Z,5.32
2023-10-22T19:17:43.178Z,6.07
2023-10-22T19:19:49.140Z,5.68
2023-10-22T19:21:52.403Z,5.93
2023-10-22T19:23:54.707Z,5.53
2023-10-22T19:25:57.864Z,4.97
2023-10-22T19:27:59.325Z,4.80
2023-10-22T19:30:02.668Z,3.90
2023-10-22T19:32:04.598Z,4.43
2023-10-22T19:34:06.458Z,4.82
2023-10-22T19:36:16.215Z,4.10
2023-10-22T19:38:17.691Z,4.18
2023-10-22T19:40:19.522Z,4.45
2023-10-22T19:42:21.244Z,4.45
2023-10-22T19:44:22.841Z,4.80
2023-10-22T19:46:24.684Z,4.82
2023-10-22T19:48:26.406Z,4.40
2023-10-22T19:50:28.052Z,4.80
2023-10-22T19:52:40.499Z,4.22
2023-10-22T19:54:43.642Z,3.85
2023-10-22T19:56:45.134Z,4.40
2023-10-22T19:58:47.023Z,4.55
2023-10-22T20:00:49.139Z,3.67
2023-10-22T20:02:50.683Z,4.30
2023-10-22T20:04:55.470Z,5.05
2023-10-22T20:06:57.087Z,4.78
2023-10-22T20:08:58.547Z,5.97
2023-10-22T20:11:00.194Z,6.00
2023-10-22T20:13:01.858Z,5.47
2023-10-22T20:15:03.507Z,4.60
2023-10-22T20:17:05.074Z,4.53
2023-10-22T20:19:06.782Z,4.60
2023-10-22T20:21:08.385Z,4.03
2023-10-22T20:23:09.840Z,3.75
2023-10-22T20:25:12.627Z,4.07
2023-10-22T20:27:14.275Z,4.50
2023-10-22T20:29:17.333Z,5.53
2023-10-22T20:31:25.308Z,6.13
2023-10-22T20:33:26.875Z,5.75
2023-10-22T20:35:28.376Z,5.40
2023-10-22T20:37:29.848Z,5.70
2023-10-22T20:39:31.564Z,5.63
2023-10-22T20:41:33.187Z,4.97
2023-10-22T20:43:38.416Z,4.57
2023-10-22T20:45:40.497Z,5.57
2023-10-22T20:47:46.196Z,6.10
2023-10-22T20:49:53.172Z,7.18
2023-10-22T20:51:54.616Z,7.82
2023-10-22T20:53:56.064Z,8.38
2023-10-22T20:55:58.601Z,7.57
2023-10-22T20:58:01.606Z,8.18
2023-10-22T21:00:06.699Z,7.45
2023-10-22T21:02:08.241Z,6.68
2023-10-22T21:04:11.485Z,6.35
2023-10-22T21:06:14.717Z,6.45
2023-10-22T21:08:16.256Z,6.40
2023-10-22T21:10:17.859Z,5.88
2023-10-22T21:12:19.434Z,6.03
2023-10-22T21:14:23.125Z,5.15
2023-10-22T21:16:24.743Z,4.82
2023-10-22T21:18:26.350Z,4.65
2023-10-22T21:20:27.914Z,4.88
2023-10-22T21:22:29.384Z,3.88
2023-10-22T21:24:30.857Z,3.90
2023-10-22T21:26:32.856Z,4.45
2023-10-22T21:28:34.782Z,4.45
2023-10-22T21:30:36.662Z,4.32
2023-10-22T21:32:38.167Z,4.03
2023-10-22T21:34:40.048Z,4.45
2023-10-22T21:36:41.648Z,4.88
2023-10-22T21:38:43.189Z,4.10
2023-10-22T21:40:44.684Z,4.38
2023-10-22T21:42:46.229Z,4.35
2023-10-22T21:44:47.840Z,4.35
2023-10-22T21:46:49.307Z,4.22
2023-10-22T21:48:50.813Z,4.22
2023-10-22T21:50:52.320Z,4.68
2023-10-22T21:52:53.776Z,4.47
2023-10-22T21:54:55.336Z,4.50
2023-10-22T21:56:56.830Z,4.60
2023-10-22T21:58:58.285Z,4.40
2023-10-22T22:01:05.170Z,4.90
2023-10-22T22:03:07.170Z,4.45
2023-10-22T22:05:08.887Z,4.70
2023-10-22T22:07:10.507Z,4.50
2023-10-22T22:09:12.027Z,4.40
2023-10-22T22:11:13.531Z,4.38
2023-10-22T22:13:16.409Z,3.95
2023-10-22T22:15:17.887Z,4.90
2023-10-22T22:17:19.589Z,4.65
2023-10-22T22:19:21.112Z,4.60
2023-10-22T22:21:24.010Z,5.10
2023-10-22T22:23:25.517Z,4.45
2023-10-22T22:25:43.632Z,4.40
2023-10-22T22:27:46.403Z,4.88
2023-10-22T22:29:47.907Z,4.50
2023-10-22T22:31:52.212Z,4.78
2023-10-22T22:33:53.790Z,3.83
2023-10-22T22:35:55.257Z,4.25
2023-10-22T22:37:56.722Z,4.28
2023-10-22T22:39:58.139Z,3.92
2023-10-22T22:41:59.610Z,3.80
2023-10-22T22:44:01.193Z,3.88
2023-10-22T22:46:02.733Z,3.90
2023-10-22T22:48:04.566Z,4.00
2023-10-22T22:50:06.897Z,4.43
2023-10-22T22:52:09.061Z,4.30
2023-10-22T22:54:10.604Z,4.05
2023-10-22T22:56:14.275Z,4.50
2023-10-22T22:58:17.113Z,4.00
2023-10-22T23:00:19.593Z,4.35
2023-10-22T23:02:21.147Z,4.40
2023-10-22T23:04:23.731Z,4.50
2023-10-22T23:06:25.238Z,4.60
2023-10-22T23:08:26.741Z,4.53
2023-10-22T23:10:28.227Z,4.35
2023-10-22T23:12:30.819Z,3.78
2023-10-22T23:14:32.363Z,4.15
2023-10-22T23:16:33.901Z,4.60
2023-10-22T23:18:35.499Z,3.92
2023-10-22T23:20:37.183Z,4.35
2023-10-22T23:22:38.738Z,4.00
2023-10-22T23:24:40.550Z,3.58
2023-10-22T23:26:42.217Z,3.40
2023-10-22T23:28:43.677Z,3.35
2023-10-22T23:30:45.535Z,3.35
2023-10-22T23:32:48.387Z,3.72
2023-10-22T23:34:49.942Z,3.40
2023-10-22T23:36:51.493Z,3.17
2023-10-22T23:38:53.013Z,3.00
2023-10-22T23:40:54.462Z,3.40
2023-10-22T23:42:56.116Z,3.22
2023-10-22T23:44:57.572Z,3.47
2023-10-22T23:46:59.094Z,3.45
2023-10-22T23:49:00.680Z,3.50
2023-10-22T23:51:02.250Z,3.25
2023-10-22T23:53:03.729Z,3.53
2023-10-22T23:55:09.366Z,3.40
2023-10-22T23:57:10.824Z,3.08
2023-10-22T23:59:12.370Z,3.08
